Time;durP1;ratioP1;P1;durP2;ratioP2;P2;SDS_P1;SDS_P2;PMS_P1;PMS_P2;Temp;Humidity;BMP_temperature;BMP_pressure;BME280_temperature;BME280_humidity;BME280_pressure;Samples;Min_cycle;Max_cycle;Signal;HPM_P1;HPM_P2
2021/05/04 00:01:26;;;;;;;12.32;6.55;;;22.50;58.00;;;;;;5086621;28;20020;-68
2021/05/04 00:03:53;;;;;;;10.90;4.97;;;22.50;58.00;;;;;;5087037;28;20044;-68
2021/05/04 00:06:20;;;;;;;14.50;4.90;;;22.40;58.50;;;;;;5090215;28;20048;-68
2021/05/04 00:08:46;;;;;;;16.38;4.22;;;22.50;57.90;;;;;;5089009;28;20380;-69
2021/05/04 00:11:13;;;;;;;14.52;4.45;;;22.40;57.90;;;;;;5091542;28;20016;-68
2021/05/04 00:13:40;;;;;;;10.18;3.65;;;22.40;57.80;;;;;;5093657;28;20024;-68
2021/05/04 00:16:06;;;;;;;9.35;3.80;;;22.40;57.80;;;;;;5093343;28;20016;-68
2021/05/04 00:18:33;;;;;;;8.68;3.90;;;22.40;57.80;;;;;;5092143;28;20471;-69
2021/05/04 00:21:00;;;;;;;8.43;3.70;;;22.40;57.80;;;;;;5092986;28;20034;-68
2021/05/04 00:23:26;;;;;;;13.05;3.10;;;22.40;57.70;;;;;;5091828;28;20048;-68
2021/05/04 00:25:53;;;;;;;10.25;3.33;;;22.40;57.60;;;;;;5092303;28;20020;-69
2021/05/04 00:28:19;;;;;;;11.82;4.43;;;22.30;57.30;;;;;;5093557;28;20023;-69
2021/05/04 00:30:46;;;;;;;10.35;3.38;;;22.30;57.10;;;;;;5093064;28;20047;-69
2021/05/04 00:33:12;;;;;;;7.35;3.72;;;22.30;56.90;;;;;;5086811;28;20410;-68
2021/05/04 00:35:39;;;;;;;10.02;3.10;;;22.30;56.70;;;;;;5093674;28;20020;-68
2021/05/04 00:38:05;;;;;;;9.25;3.67;;;22.30;56.70;;;;;;5092388;28;20032;-69
2021/05/04 00:40:32;;;;;;;11.93;3.40;;;22.30;56.60;;;;;;5081135;28;20052;-69
2021/05/04 00:42:58;;;;;;;9.77;3.95;;;22.30;56.60;;;;;;5090476;28;20103;-69
2021/05/04 00:45:25;;;;;;;13.98;4.65;;;22.20;56.60;;;;;;5091122;28;20166;-69
2021/05/04 00:47:52;;;;;;;10.45;4.78;;;22.20;56.50;;;;;;5087144;28;20021;-69
2021/05/04 00:50:18;;;;;;;15.23;6.60;;;22.20;56.50;;;;;;5091792;28;20028;-69
2021/05/04 00:52:46;;;;;;;16.77;6.70;;;22.20;56.50;;;;;;5087561;28;20039;-69
2021/05/04 00:55:13;;;;;;;16.98;8.00;;;22.20;56.50;;;;;;5086994;28;20024;-69
2021/05/04 00:57:43;;;;;;;18.13;7.38;;;22.20;56.50;;;;;;5092425;28;20581;-68
2021/05/04 01:00:13;;;;;;;22.20;9.02;;;22.20;56.40;;;;;;5089259;28;20150;-68
2021/05/04 01:02:41;;;;;;;21.13;9.52;;;22.20;56.40;;;;;;5088246;28;20103;-68
2021/05/04 01:05:11;;;;;;;19.13;10.15;;;22.20;56.40;;;;;;5084299;28;20016;-68
2021/05/04 01:07:37;;;;;;;20.02;9.70;;;22.20;56.40;;;;;;5091405;28;20020;-68
2021/05/04 01:10:05;;;;;;;16.77;10.07;;;22.20;56.40;;;;;;5089755;28;20020;-69
2021/05/04 01:12:32;;;;;;;17.88;10.90;;;22.20;56.50;;;;;;5088998;28;20069;-68
2021/05/04 01:14:59;;;;;;;17.02;9.73;;;22.20;56.40;;;;;;5092729;28;20043;-68
2021/05/04 01:17:26;;;;;;;22.45;11.23;;;22.20;56.40;;;;;;5091595;28;20375;-69
2021/05/04 01:19:53;;;;;;;18.25;9.68;;;22.10;56.30;;;;;;5088248;28;20027;-67
2021/05/04 01:22:19;;;;;;;24.00;10.20;;;22.20;56.20;;;;;;5090558;28;20062;-68
2021/05/04 01:24:46;;;;;;;19.40;9.02;;;22.10;56.10;;;;;;5092540;28;20059;-68
2021/05/04 01:27:16;;;;;;;20.50;8.88;;;22.10;56.10;;;;;;5092323;28;20023;-69
2021/05/04 01:29:42;;;;;;;22.50;8.98;;;22.10;56.00;;;;;;5091860;28;20549;-68
2021/05/04 01:32:11;;;;;;;19.05;9.20;;;22.10;55.90;;;;;;5092490;28;20607;-68
2021/05/04 01:34:38;;;;;;;16.33;8.38;;;22.10;55.80;;;;;;5089113;28;20376;-69
2021/05/04 01:37:04;;;;;;;16.92;8.65;;;22.10;55.80;;;;;;5092105;28;20034;-68
2021/05/04 01:39:42;;;;;;;15.73;8.10;;;22.10;55.70;;;;;;5091158;28;20024;-69
2021/05/04 01:42:09;;;;;;;17.35;8.27;;;22.10;55.70;;;;;;5091993;28;20020;-68
2021/05/04 01:44:36;;;;;;;17.40;8.00;;;22.10;55.70;;;;;;5092302;28;20016;-68
2021/05/04 01:47:03;;;;;;;19.25;8.23;;;22.10;55.60;;;;;;5091361;28;20483;-68
2021/05/04 01:49:30;;;;;;;22.00;10.90;;;22.10;55.60;;;;;;5092191;28;20020;-68
2021/05/04 01:51:57;;;;;;;19.92;11.45;;;22.10;55.70;;;;;;5091218;28;20099;-69
2021/05/04 01:54:24;;;;;;;30.73;15.90;;;22.00;55.80;;;;;;5091965;28;20062;-69
2021/05/04 01:56:53;;;;;;;34.33;23.25;;;22.00;55.90;;;;;;5088637;28;20038;-68
2021/05/04 01:59:21;;;;;;;38.53;21.00;;;22.00;56.10;;;;;;5091406;28;20030;-68
2021/05/04 02:01:48;;;;;;;29.77;18.02;;;22.00;56.20;;;;;;5091601;28;20095;-69
2021/05/04 02:04:15;;;;;;;40.13;15.90;;;22.00;56.30;;;;;;5091122;28;20398;-70
2021/05/04 02:06:42;;;;;;;21.55;12.23;;;22.00;56.40;;;;;;5091914;28;20009;-68
2021/05/04 02:09:10;;;;;;;22.35;11.30;;;22.00;56.60;;;;;;5090578;28;20020;-69
2021/05/04 02:11:37;;;;;;;23.52;9.82;;;22.00;56.70;;;;;;5091672;28;20068;-69
2021/05/04 02:14:05;;;;;;;25.67;11.40;;;22.00;56.90;;;;;;5090840;28;20020;-68
2021/05/04 02:16:32;;;;;;;18.50;8.52;;;22.00;57.00;;;;;;5091560;28;20011;-68
2021/05/04 02:18:59;;;;;;;20.17;7.82;;;22.00;57.20;;;;;;5089474;28;20016;-68
2021/05/04 02:21:26;;;;;;;19.17;7.85;;;21.90;57.20;;;;;;5082753;28;20088;-68
2021/05/04 02:23:52;;;;;;;16.42;6.78;;;21.90;57.20;;;;;;5086257;28;20020;-68
2021/05/04 02:26:19;;;;;;;18.50;6.90;;;21.90;57.30;;;;;;5090267;28;20095;-68
2021/05/04 02:28:46;;;;;;;14.90;6.38;;;21.90;57.40;;;;;;5091402;28;20016;-68
2021/05/04 02:31:14;;;;;;;21.83;5.85;;;21.90;57.40;;;;;;5090125;28;20051;-67
2021/05/04 02:33:42;;;;;;;16.92;5.90;;;21.90;57.40;;;;;;5091118;28;20491;-68
2021/05/04 02:36:09;;;;;;;18.35;5.15;;;21.90;57.50;;;;;;5090695;28;20023;-68
2021/05/04 02:38:38;;;;;;;19.50;5.07;;;21.90;57.50;;;;;;5090408;28;20028;-68
2021/05/04 02:41:05;;;;;;;14.02;6.10;;;21.90;57.60;;;;;;5089517;28;20016;-68
2021/05/04 02:43:32;;;;;;;20.58;7.65;;;21.90;57.60;;;;;;5087946;28;20050;-68
2021/05/04 02:45:59;;;;;;;20.98;6.97;;;21.90;57.60;;;;;;5085445;28;20016;-68
2021/05/04 02:48:26;;;;;;;17.95;7.05;;;21.90;57.60;;;;;;5089827;28;20066;-68
2021/05/04 02:50:53;;;;;;;16.08;8.07;;;21.90;57.70;;;;;;5085082;28;20020;-68
2021/05/04 02:53:19;;;;;;;21.48;7.95;;;21.90;57.70;;;;;;5090112;28;20103;-68
2021/05/04 02:55:46;;;;;;;17.63;8.60;;;21.90;57.70;;;;;;5090761;28;20043;-68
2021/05/04 02:58:13;;;;;;;24.45;9.45;;;21.90;57.70;;;;;;5090834;28;20035;-68
2021/05/04 03:00:39;;;;;;;15.82;8.82;;;21.90;57.60;;;;;;5089159;28;20506;-67
2021/05/04 03:03:06;;;;;;;20.95;9.70;;;21.80;57.60;;;;;;5090931;28;20020;-68
2021/05/04 03:05:33;;;;;;;19.52;8.18;;;21.80;57.50;;;;;;5089514;28;20035;-68
2021/05/04 03:08:39;;;;;;;21.23;7.68;;;21.80;57.50;;;;;;5088685;28;20483;-68
2021/05/04 03:11:45;;;;;;;19.08;6.90;;;21.80;57.40;;;;;;5089008;28;20054;-68
2021/05/04 03:14:51;;;;;;;14.48;7.88;;;21.80;57.20;;;;;;5086176;28;20070;-69
2021/05/04 03:17:57;;;;;;;13.82;7.18;;;21.80;57.10;;;;;;5088126;28;20008;-69
2021/05/04 03:21:00;;;;;;;13.45;6.47;;;21.80;57.10;;;;;;5087453;28;20069;-69
2021/05/04 03:23:27;;;;;;;16.55;7.72;;;21.80;56.90;;;;;;5091163;28;20417;-68
2021/05/04 03:25:54;;;;;;;14.75;5.28;;;21.80;57.40;;;;;;5090496;28;20020;-69
2021/05/04 03:28:20;;;;;;;10.45;4.82;;;21.80;56.60;;;;;;5090229;28;20132;-69
2021/05/04 03:30:47;;;;;;;13.23;7.13;;;21.80;56.60;;;;;;5080853;28;20059;-69
2021/05/04 03:33:14;;;;;;;16.35;6.07;;;21.70;56.40;;;;;;5089744;28;20375;-68
2021/05/04 03:35:40;;;;;;;12.13;5.95;;;21.80;56.30;;;;;;5089294;28;20095;-69
2021/05/04 03:38:07;;;;;;;15.98;6.15;;;21.70;56.10;;;;;;5090381;28;20032;-68
2021/05/04 03:40:33;;;;;;;12.32;5.57;;;21.70;56.00;;;;;;5089128;28;20016;-69
2021/05/04 03:43:01;;;;;;;9.80;5.10;;;21.70;55.80;;;;;;5090239;28;20430;-68
2021/05/04 03:45:28;;;;;;;19.50;5.90;;;21.70;55.70;;;;;;5089028;28;20012;-68
2021/05/04 03:47:55;;;;;;;8.48;3.80;;;21.70;55.60;;;;;;5089632;28;20023;-69
2021/05/04 03:50:24;;;;;;;12.02;4.35;;;21.70;55.40;;;;;;5090325;28;20054;-70
2021/05/04 03:52:51;;;;;;;9.50;3.92;;;21.70;55.30;;;;;;5087098;28;20404;-71
2021/05/04 03:55:18;;;;;;;10.18;4.57;;;21.70;55.20;;;;;;5089729;28;20046;-70
2021/05/04 03:57:45;;;;;;;13.15;4.30;;;21.70;55.10;;;;;;5088756;28;20012;-70
2021/05/04 04:00:13;;;;;;;11.07;4.15;;;21.70;55.00;;;;;;5090228;28;20078;-69
2021/05/04 04:02:40;;;;;;;11.48;4.30;;;21.70;54.90;;;;;;5089184;28;20073;-69
2021/05/04 04:05:07;;;;;;;11.40;4.47;;;21.70;54.80;;;;;;5089730;28;20467;-68
2021/05/04 04:07:34;;;;;;;15.52;10.23;;;21.70;54.70;;;;;;5089957;28;20024;-70
2021/05/04 04:10:00;;;;;;;13.95;9.70;;;21.70;54.60;;;;;;5088981;28;20063;-69
2021/05/04 04:12:27;;;;;;;17.80;8.65;;;21.70;54.50;;;;;;5082984;28;20036;-69
2021/05/04 04:14:54;;;;;;;13.00;8.55;;;21.60;54.40;;;;;;5084333;28;20500;-68
2021/05/04 04:17:21;;;;;;;10.50;6.10;;;21.60;54.40;;;;;;5081530;28;20028;-68
2021/05/04 04:19:48;;;;;;;12.88;7.47;;;21.60;54.30;;;;;;5088567;28;20032;-67
2021/05/04 04:22:15;;;;;;;12.20;5.78;;;21.60;54.30;;;;;;5088882;28;20027;-69
2021/05/04 04:24:42;;;;;;;10.35;5.28;;;21.60;54.30;;;;;;5082710;28;20012;-67
2021/05/04 04:27:09;;;;;;;18.40;9.88;;;21.60;54.20;;;;;;5088593;28;20023;-68
2021/05/04 04:29:35;;;;;;;18.15;10.40;;;21.60;54.20;;;;;;5089326;28;20042;-68
2021/05/04 04:32:02;;;;;;;17.08;9.73;;;21.60;54.30;;;;;;5086606;28;20032;-69
2021/05/04 04:34:29;;;;;;;16.85;8.20;;;21.60;54.30;;;;;;5081137;28;20112;-69
2021/05/04 04:36:56;;;;;;;14.55;7.97;;;21.50;54.40;;;;;;5086512;28;20086;-69
2021/05/04 04:39:23;;;;;;;11.65;6.47;;;21.60;54.50;;;;;;5085488;28;20028;-71
2021/05/04 04:41:49;;;;;;;13.07;5.30;;;21.60;54.60;;;;;;5088304;28;20024;-68
2021/05/04 04:44:16;;;;;;;17.50;5.70;;;21.50;54.60;;;;;;5089048;28;20057;-68
2021/05/04 04:46:44;;;;;;;9.77;5.38;;;21.50;54.70;;;;;;5088947;28;20177;-67
2021/05/04 04:49:13;;;;;;;13.13;4.72;;;21.50;54.70;;;;;;5086079;28;20024;-67
2021/05/04 04:51:39;;;;;;;11.63;5.55;;;21.50;54.80;;;;;;5089839;28;20122;-68
2021/05/04 04:54:07;;;;;;;11.02;5.05;;;21.50;54.90;;;;;;5088429;28;20020;-67
2021/05/04 04:56:35;;;;;;;10.13;4.28;;;21.50;54.90;;;;;;5090026;28;20024;-67
2021/05/04 04:59:03;;;;;;;14.25;5.68;;;21.50;54.90;;;;;;5092582;28;20483;-67
2021/05/04 05:01:30;;;;;;;10.95;5.97;;;21.50;55.00;;;;;;5089822;28;20008;-67
2021/05/04 05:03:57;;;;;;;16.33;5.95;;;21.40;55.10;;;;;;5088275;28;20012;-67
2021/05/04 05:06:23;;;;;;;14.68;6.10;;;21.40;55.20;;;;;;5092085;28;20008;-67
2021/05/04 05:08:51;;;;;;;16.67;6.82;;;21.40;55.30;;;;;;5091708;28;20032;-67
2021/05/04 05:11:18;;;;;;;12.20;6.40;;;21.40;55.40;;;;;;5087672;28;20111;-67
2021/05/04 05:13:45;;;;;;;21.48;7.18;;;21.40;55.50;;;;;;5085705;28;20110;-67
2021/05/04 05:16:14;;;;;;;10.98;6.18;;;21.40;55.60;;;;;;5092070;28;20341;-68
2021/05/04 05:18:41;;;;;;;14.73;6.65;;;21.40;55.60;;;;;;5092428;28;20394;-68
2021/05/04 05:21:09;;;;;;;23.52;7.35;;;21.40;55.70;;;;;;5092807;28;20012;-68
2021/05/04 05:23:36;;;;;;;17.17;6.80;;;21.30;55.60;;;;;;5091522;28;20017;-68
2021/05/04 05:26:04;;;;;;;27.52;7.70;;;21.40;55.60;;;;;;5092815;28;20020;-68
2021/05/04 05:28:30;;;;;;;34.47;8.77;;;21.30;55.60;;;;;;5091552;28;20081;-67
2021/05/04 05:30:57;;;;;;;34.08;9.63;;;21.30;55.60;;;;;;5092367;28;20552;-68
2021/05/04 05:33:23;;;;;;;45.88;11.35;;;21.30;55.60;;;;;;5085364;28;20048;-68
2021/05/04 05:35:50;;;;;;;25.42;7.07;;;21.30;55.50;;;;;;5087051;28;20152;-67
2021/05/04 05:38:17;;;;;;;22.30;6.65;;;21.30;55.40;;;;;;5090939;28;20028;-68
2021/05/04 05:40:43;;;;;;;15.00;6.43;;;21.30;55.90;;;;;;5091738;28;20016;-66
2021/05/04 05:43:10;;;;;;;14.20;5.53;;;21.30;55.20;;;;;;5092383;28;20107;-67
2021/05/04 05:45:36;;;;;;;12.25;4.90;;;21.30;55.20;;;;;;5091685;28;20016;-67
2021/05/04 05:48:03;;;;;;;13.00;4.40;;;21.30;55.10;;;;;;5092204;28;20024;-66
2021/05/04 05:50:29;;;;;;;11.20;4.57;;;21.30;55.10;;;;;;5091143;28;20013;-66
2021/05/04 05:52:56;;;;;;;8.23;3.97;;;21.20;54.90;;;;;;5092298;28;20435;-66
2021/05/04 05:55:22;;;;;;;14.55;5.30;;;21.30;54.90;;;;;;5091541;28;20016;-66
2021/05/04 05:57:49;;;;;;;17.08;4.75;;;21.30;54.90;;;;;;5091375;28;20115;-67
2021/05/04 06:00:18;;;;;;;12.30;4.88;;;21.30;54.90;;;;;;5090660;28;20069;-66
2021/05/04 06:02:48;;;;;;;10.95;5.00;;;21.30;55.00;;;;;;5084551;28;20043;-67
2021/05/04 06:05:15;;;;;;;9.20;4.60;;;21.30;55.00;;;;;;5091879;28;20016;-67
2021/05/04 06:07:41;;;;;;;10.10;4.18;;;21.30;55.10;;;;;;5090778;28;20019;-66
2021/05/04 06:10:09;;;;;;;12.30;4.70;;;21.30;55.10;;;;;;5091171;28;20485;-66
2021/05/04 06:12:36;;;;;;;11.27;4.55;;;21.30;55.20;;;;;;5090979;28;20024;-67
2021/05/04 06:15:02;;;;;;;15.20;5.05;;;21.30;55.30;;;;;;5091165;28;20107;-67
2021/05/04 06:17:30;;;;;;;15.30;6.75;;;21.30;55.50;;;;;;5087707;28;20024;-67
2021/05/04 06:19:56;;;;;;;15.35;5.70;;;21.30;55.60;;;;;;5081885;28;20040;-66
2021/05/04 06:22:23;;;;;;;21.67;6.13;;;21.30;55.70;;;;;;5090003;28;20020;-66
2021/05/04 06:24:49;;;;;;;20.83;6.15;;;21.30;55.80;;;;;;5082444;28;20092;-66
2021/05/04 06:27:17;;;;;;;14.93;6.18;;;21.30;55.80;;;;;;5087858;28;20019;-67
2021/05/04 06:29:45;;;;;;;16.95;5.88;;;21.30;55.90;;;;;;5083483;28;20024;-67
2021/05/04 06:32:13;;;;;;;19.45;5.85;;;21.30;55.90;;;;;;5090630;28;20170;-67
2021/05/04 06:34:41;;;;;;;20.23;7.20;;;21.30;56.00;;;;;;5090980;28;20020;-67
2021/05/04 06:37:08;;;;;;;19.60;6.57;;;21.30;56.00;;;;;;5081980;28;20042;-67
2021/05/04 06:39:34;;;;;;;18.52;6.70;;;21.30;56.00;;;;;;5086965;28;20050;-67
2021/05/04 06:42:01;;;;;;;19.15;6.95;;;21.30;55.90;;;;;;5089580;28;20099;-67
2021/05/04 06:44:27;;;;;;;18.02;7.50;;;21.30;55.90;;;;;;5084134;28;20012;-67
2021/05/04 06:46:54;;;;;;;12.95;5.88;;;21.30;55.80;;;;;;5089662;28;20413;-67
2021/05/04 06:49:20;;;;;;;18.92;5.68;;;21.30;55.70;;;;;;5087432;28;20509;-67
2021/05/04 06:51:47;;;;;;;10.75;3.63;;;21.30;55.50;;;;;;5090372;28;20055;-67
2021/05/04 06:54:13;;;;;;;13.60;5.47;;;21.40;55.40;;;;;;5089744;28;20012;-67
2021/05/04 06:56:40;;;;;;;11.85;3.28;;;21.40;55.30;;;;;;5087718;28;20496;-67
2021/05/04 06:59:06;;;;;;;17.02;4.43;;;21.40;55.20;;;;;;5080311;28;20036;-67
2021/05/04 07:01:34;;;;;;;10.43;3.97;;;21.40;55.10;;;;;;5090134;28;20133;-67
2021/05/04 07:04:00;;;;;;;11.88;4.20;;;21.40;55.10;;;;;;5089057;28;20020;-67
2021/05/04 07:06:27;;;;;;;14.75;3.45;;;21.40;55.10;;;;;;5089284;28;20016;-68
2021/05/04 07:08:53;;;;;;;13.60;3.60;;;21.40;55.10;;;;;;5082393;28;20463;-67
2021/05/04 07:11:20;;;;;;;20.13;4.85;;;21.40;55.20;;;;;;5089314;28;20020;-67
2021/05/04 07:13:46;;;;;;;18.83;5.78;;;21.50;55.30;;;;;;5087087;28;20054;-67
2021/05/04 07:16:14;;;;;;;13.68;5.90;;;21.50;55.40;;;;;;5089323;28;20455;-68
2021/05/04 07:18:41;;;;;;;14.60;6.93;;;21.50;55.40;;;;;;5085146;28;20047;-67
2021/05/04 07:21:09;;;;;;;20.08;8.73;;;21.50;55.50;;;;;;5082057;28;20034;-67
2021/05/04 07:23:41;;;;;;;17.35;7.50;;;21.60;55.60;;;;;;5089412;28;20111;-68
2021/05/04 07:26:09;;;;;;;19.98;8.18;;;21.60;55.60;;;;;;5089338;28;20025;-69
2021/05/04 07:28:35;;;;;;;14.93;7.07;;;21.60;55.60;;;;;;5086759;28;20366;-68
2021/05/04 07:31:02;;;;;;;14.73;5.85;;;21.60;55.60;;;;;;5086921;28;20044;-68
2021/05/04 07:33:28;;;;;;;13.18;6.15;;;21.70;55.60;;;;;;5087765;28;20042;-68
2021/05/04 07:35:55;;;;;;;17.40;7.03;;;21.70;55.50;;;;;;5082628;28;20030;-68
2021/05/04 07:38:21;;;;;;;19.80;8.15;;;21.70;55.50;;;;;;5067987;28;20402;-68
2021/05/04 07:40:48;;;;;;;27.40;14.15;;;21.70;55.50;;;;;;5085445;28;20078;-68
2021/05/04 07:43:14;;;;;;;26.00;14.70;;;21.80;55.50;;;;;;5067330;28;20008;-68
2021/05/04 07:45:41;;;;;;;31.98;13.05;;;21.80;55.40;;;;;;5081690;28;20025;-68
2021/05/04 07:48:10;;;;;;;23.95;9.52;;;21.80;55.40;;;;;;5085289;28;20020;-67
2021/05/04 07:50:38;;;;;;;18.35;6.90;;;21.80;55.50;;;;;;5084670;28;20051;-68
2021/05/04 07:53:07;;;;;;;15.48;5.55;;;21.90;55.90;;;;;;5086421;28;20024;-68
2021/05/04 07:55:33;;;;;;;15.07;5.32;;;21.90;56.10;;;;;;5083111;28;20025;-68
2021/05/04 07:58:00;;;;;;;21.35;4.60;;;21.90;56.40;;;;;;5081218;28;20490;-68
2021/05/04 08:00:26;;;;;;;10.95;3.25;;;21.90;56.60;;;;;;5081795;28;20108;-68
2021/05/04 08:02:53;;;;;;;11.88;2.85;;;21.90;57.10;;;;;;5083939;28;20710;-67
2021/05/04 08:05:20;;;;;;;9.27;3.20;;;22.00;57.50;;;;;;5085446;28;20505;-68
2021/05/04 08:07:46;;;;;;;13.60;2.95;;;22.00;57.80;;;;;;5085822;28;20091;-68
2021/05/04 08:10:12;;;;;;;12.18;3.03;;;22.00;58.00;;;;;;5085399;28;20016;-68
2021/05/04 08:12:39;;;;;;;10.65;3.22;;;22.00;58.00;;;;;;5083785;28;20574;-68
2021/05/04 08:15:12;;;;;;;11.70;3.25;;;22.10;58.20;;;;;;5080747;28;20020;-68
2021/05/04 08:17:40;;;;;;;17.30;3.70;;;22.10;58.20;;;;;;5065004;28;20537;-68
2021/05/04 08:20:07;;;;;;;10.65;3.40;;;22.10;58.10;;;;;;5086479;28;20016;-68
2021/05/04 08:22:35;;;;;;;12.18;2.78;;;22.10;58.00;;;;;;5086252;28;20043;-68
2021/05/04 08:25:02;;;;;;;9.57;2.33;;;22.20;57.90;;;;;;5082287;28;20495;-68
2021/05/04 08:27:29;;;;;;;8.30;2.80;;;22.20;58.00;;;;;;5087678;28;20412;-68
2021/05/04 08:29:55;;;;;;;8.32;2.90;;;22.20;58.20;;;;;;5085427;28;20046;-68
2021/05/04 08:32:21;;;;;;;9.10;2.50;;;22.20;58.50;;;;;;5084289;28;20126;-67
2021/05/04 08:34:48;;;;;;;5.70;1.80;;;22.20;58.70;;;;;;5088090;28;20413;-68
2021/05/04 08:37:14;;;;;;;6.35;1.80;;;22.30;59.00;;;;;;5090500;28;20108;-68
2021/05/04 08:39:41;;;;;;;4.85;2.25;;;22.30;59.20;;;;;;5082353;28;20089;-68
2021/05/04 08:42:07;;;;;;;3.42;2.20;;;22.30;59.60;;;;;;5085806;28;20039;-68
2021/05/04 08:44:36;;;;;;;2.90;1.38;;;22.30;59.90;;;;;;5091360;28;20095;-68
2021/05/04 08:47:03;;;;;;;3.47;1.80;;;22.30;60.20;;;;;;5089677;28;20031;-69
2021/05/04 08:49:30;;;;;;;2.22;1.98;;;22.30;60.40;;;;;;5089415;28;20024;-68
2021/05/04 08:51:56;;;;;;;6.28;4.28;;;22.30;60.50;;;;;;5090568;28;20020;-67
2021/05/04 08:54:23;;;;;;;11.85;9.80;;;22.30;60.60;;;;;;5074148;28;20024;-68
2021/05/04 08:56:49;;;;;;;12.25;6.90;;;22.30;60.60;;;;;;5090307;28;20021;-68
2021/05/04 08:59:16;;;;;;;4.10;3.70;;;22.40;60.70;;;;;;5089312;28;20417;-68
2021/05/04 09:01:43;;;;;;;3.05;2.63;;;22.40;60.60;;;;;;5073877;28;20054;-68
2021/05/04 09:04:44;;;;;;;5.50;2.08;;;22.40;60.60;;;;;;5085307;28;20012;-68
2021/05/04 09:07:33;;;;;;;3.78;2.08;;;22.40;60.70;;;;;;5089794;28;20032;-68
2021/05/04 09:12:45;;;;;;;2.53;1.30;;;22.40;60.60;;;;;;5089283;28;20360;-67
2021/05/04 09:21:12;;;;;;;2.75;1.35;;;22.50;60.40;;;;;;5090146;28;20402;-67
2021/05/04 09:23:41;;;;;;;4.10;1.20;;;22.50;60.30;;;;;;5087449;28;20036;-67
2021/05/04 09:26:22;;;;;;;4.43;2.22;;;22.60;60.30;;;;;;5085293;28;20043;-67
2021/05/04 09:28:53;;;;;;;2.67;1.27;;;22.60;60.10;;;;;;5084047;28;20024;-67
2021/05/04 09:31:24;;;;;;;4.47;1.75;;;22.70;60.10;;;;;;5083945;28;20049;-67
2021/05/04 09:33:51;;;;;;;1.70;0.80;;;22.70;60.00;;;;;;5088518;28;20111;-67
2021/05/04 09:36:37;;;;;;;2.53;1.48;;;22.70;59.90;;;;;;5088411;28;20492;-66
2021/05/04 09:39:08;;;;;;;2.97;1.70;;;22.70;59.90;;;;;;5083879;28;20113;-67
2021/05/04 09:41:35;;;;;;;1.13;1.02;;;22.70;59.80;;;;;;5085707;28;20086;-67
2021/05/04 09:44:02;;;;;;;3.05;2.03;;;22.70;59.80;;;;;;5085696;28;20065;-67
2021/05/04 09:46:48;;;;;;;2.72;1.88;;;22.80;59.80;;;;;;5089115;28;20020;-67
2021/05/04 09:49:32;;;;;;;5.13;3.28;;;22.80;59.90;;;;;;5085610;28;20050;-67
2021/05/04 09:52:20;;;;;;;4.50;3.08;;;22.80;60.00;;;;;;5084567;28;20020;-67
2021/05/04 09:54:46;;;;;;;4.50;2.42;;;22.80;60.00;;;;;;5087513;28;20020;-68
2021/05/04 09:57:36;;;;;;;2.38;1.70;;;22.80;60.00;;;;;;5089051;28;20418;-67
2021/05/04 10:00:06;;;;;;;2.83;2.60;;;22.70;60.00;;;;;;5084914;28;20102;-67
2021/05/04 10:02:33;;;;;;;1.88;1.70;;;22.70;60.00;;;;;;5084489;28;20024;-67
2021/05/04 10:05:39;;;;;;;2.45;1.80;;;22.70;60.10;;;;;;5076376;28;20387;-67
2021/05/04 10:08:48;;;;;;;2.05;1.88;;;22.70;60.20;;;;;;5086907;28;20036;-67
2021/05/04 10:11:55;;;;;;;2.97;1.70;;;22.70;60.20;;;;;;5087382;28;21335;-67
2021/05/04 10:15:01;;;;;;;4.15;2.15;;;22.70;60.20;;;;;;5084737;28;20024;-67
2021/05/04 10:18:07;;;;;;;2.53;1.75;;;22.60;60.30;;;;;;5080430;28;20031;-70
2021/05/04 10:21:13;;;;;;;3.97;2.53;;;22.60;60.40;;;;;;5084472;28;20119;-67
2021/05/04 10:24:19;;;;;;;5.72;2.50;;;22.60;60.50;;;;;;5082618;28;20043;-68
2021/05/04 10:27:25;;;;;;;5.20;1.58;;;22.50;60.60;;;;;;5081218;28;20024;-67
2021/05/04 10:30:33;;;;;;;1.88;1.48;;;22.50;60.70;;;;;;5087421;28;20032;-68
2021/05/04 10:33:11;;;;;;;2.58;2.00;;;22.50;60.90;;;;;;5086226;28;20077;-68
2021/05/04 10:35:42;;;;;;;2.38;1.63;;;22.40;61.00;;;;;;5084746;28;20032;-68
2021/05/04 10:38:09;;;;;;;1.92;1.60;;;22.40;61.30;;;;;;5087785;28;20036;-68
2021/05/04 10:40:45;;;;;;;2.92;2.42;;;22.40;61.50;;;;;;5081183;28;20099;-68
2021/05/04 10:43:24;;;;;;;2.97;2.28;;;22.40;61.70;;;;;;5088386;28;20387;-68
2021/05/04 10:45:58;;;;;;;5.15;2.58;;;22.40;61.90;;;;;;5088887;28;20571;-67
2021/05/04 10:48:37;;;;;;;3.03;2.10;;;22.30;62.00;;;;;;5084455;28;20398;-68
2021/05/04 10:51:07;;;;;;;4.20;1.80;;;22.30;62.00;;;;;;5089318;28;20086;-68
2021/05/04 10:53:53;;;;;;;7.55;5.28;;;22.30;62.10;;;;;;5084668;28;20016;-67
2021/05/04 10:56:57;;;;;;;8.25;5.45;;;22.30;62.70;;;;;;5084804;28;20146;-68
2021/05/04 10:59:26;;;;;;;6.22;5.22;;;22.20;63.00;;;;;;5084322;28;20040;-68
2021/05/04 11:02:08;;;;;;;3.60;2.60;;;22.10;63.00;;;;;;5088177;28;20024;-68
2021/05/04 11:04:46;;;;;;;3.58;2.78;;;22.10;62.80;;;;;;5069634;28;20487;-68
2021/05/04 11:07:12;;;;;;;3.95;2.10;;;22.10;62.70;;;;;;5088335;28;20028;-68
2021/05/04 11:09:39;;;;;;;2.55;1.90;;;22.10;62.60;;;;;;5085627;28;20111;-68
2021/05/04 11:12:09;;;;;;;3.15;1.95;;;22.10;62.60;;;;;;5088032;28;20019;-67
2021/05/04 11:14:39;;;;;;;1.60;1.50;;;22.10;62.50;;;;;;5080618;28;20020;-68
2021/05/04 11:17:45;;;;;;;2.55;1.58;;;22.10;62.50;;;;;;5074749;28;20024;-68
2021/05/04 11:20:59;;;;;;;1.42;1.33;;;22.10;62.60;;;;;;5068536;28;20411;-68
2021/05/04 11:23:25;;;;;;;1.77;1.50;;;22.10;62.50;;;;;;5079794;28;20415;-68
2021/05/04 11:25:52;;;;;;;2.03;1.55;;;22.10;62.60;;;;;;5089199;28;20551;-68
2021/05/04 11:28:18;;;;;;;3.72;1.73;;;22.10;62.70;;;;;;5082556;28;20470;-68
2021/05/04 11:30:45;;;;;;;2.55;1.80;;;22.10;62.80;;;;;;5088612;28;20403;-69
2021/05/04 11:33:31;;;;;;;2.22;1.50;;;22.10;62.90;;;;;;5083115;28;20038;-68
2021/05/04 11:35:59;;;;;;;1.88;1.50;;;22.10;63.00;;;;;;5086383;28;20039;-68
2021/05/04 11:38:27;;;;;;;2.22;1.63;;;22.10;63.00;;;;;;5085412;28;20032;-68
2021/05/04 11:40:54;;;;;;;2.50;1.45;;;22.20;63.00;;;;;;5078460;28;20012;-68
2021/05/04 11:43:22;;;;;;;2.85;1.85;;;22.20;62.90;;;;;;5087297;28;20065;-68
2021/05/04 11:45:49;;;;;;;3.72;1.52;;;22.20;62.80;;;;;;5085390;28;20059;-67
2021/05/04 11:48:18;;;;;;;3.05;1.75;;;22.30;62.80;;;;;;5087463;28;20024;-67
2021/05/04 11:50:52;;;;;;;2.85;2.20;;;22.30;62.70;;;;;;5077729;28;20116;-68
2021/05/04 11:53:19;;;;;;;5.05;3.30;;;22.30;62.70;;;;;;5085026;28;20024;-67
2021/05/04 11:55:53;;;;;;;14.95;12.20;;;22.30;62.60;;;;;;5087080;28;20165;-67
2021/05/04 11:58:24;;;;;;;16.65;12.45;;;22.40;62.50;;;;;;5076715;28;20087;-67
2021/05/04 12:01:03;;;;;;;7.55;5.47;;;22.40;62.40;;;;;;5085987;28;20048;-68
2021/05/04 12:03:31;;;;;;;6.68;4.97;;;22.50;62.40;;;;;;5077048;28;20050;-68
2021/05/04 12:05:59;;;;;;;6.90;3.08;;;22.50;62.20;;;;;;5077856;28;20426;-68
2021/05/04 12:08:26;;;;;;;4.20;2.72;;;22.60;62.00;;;;;;5088917;28;20024;-68
2021/05/04 12:10:54;;;;;;;3.97;2.33;;;22.70;61.90;;;;;;5086329;28;20067;-68
2021/05/04 12:13:23;;;;;;;4.75;1.90;;;22.80;61.80;;;;;;5088736;28;20036;-67
2021/05/04 12:15:57;;;;;;;2.80;1.70;;;22.90;61.60;;;;;;5088825;28;20020;-67
2021/05/04 12:18:25;;;;;;;3.55;2.38;;;22.90;61.40;;;;;;5087364;28;20040;-68
2021/05/04 12:20:53;;;;;;;6.63;2.40;;;23.00;61.10;;;;;;5090680;28;20491;-67
2021/05/04 12:23:35;;;;;;;4.88;2.90;;;23.10;61.00;;;;;;5083922;28;20043;-67
2021/05/04 12:26:10;;;;;;;4.45;1.55;;;23.20;60.90;;;;;;5088563;28;20036;-68
2021/05/04 12:28:44;;;;;;;4.53;2.15;;;23.20;60.80;;;;;;5089733;28;20082;-68
2021/05/04 12:31:13;;;;;;;7.60;2.03;;;23.30;60.60;;;;;;5090482;28;20040;-68
2021/05/04 12:33:41;;;;;;;3.15;1.58;;;23.40;60.50;;;;;;5088097;28;20487;-67
2021/05/04 12:36:11;;;;;;;4.05;1.90;;;23.40;60.40;;;;;;5092511;28;20022;-67
2021/05/04 12:41:22;;;;;;;3.63;2.22;;;23.50;60.20;;;;;;5085745;28;20107;-67
2021/05/04 12:44:23;;;;;;;6.47;2.25;;;23.50;60.00;;;;;;5089100;28;20063;-67
2021/05/04 12:47:06;;;;;;;5.25;2.78;;;23.60;60.00;;;;;;5079326;28;20032;-67
2021/05/04 12:49:39;;;;;;;5.88;3.10;;;23.60;60.00;;;;;;5087435;28;20016;-67
2021/05/04 12:52:15;;;;;;;8.07;2.25;;;23.60;59.80;;;;;;5089417;28;20482;-68
2021/05/04 12:54:44;;;;;;;6.75;2.30;;;23.60;59.60;;;;;;5088293;28;20050;-67
2021/05/04 12:57:27;;;;;;;4.57;2.38;;;23.60;59.50;;;;;;5088847;28;20375;-68
2021/05/04 12:59:55;;;;;;;5.45;2.20;;;23.70;59.40;;;;;;5089488;28;20028;-68
2021/05/04 13:02:26;;;;;;;3.22;2.28;;;23.70;59.40;;;;;;5088402;28;20027;-68
2021/05/04 13:04:56;;;;;;;3.85;2.15;;;23.60;59.30;;;;;;5092006;28;20024;-68
2021/05/04 13:07:51;;;;;;;4.53;3.05;;;23.70;59.30;;;;;;5085164;28;20046;-68
2021/05/04 13:32:49;;;;;;;4.40;2.00;;;23.70;59.30;;;;;;5088094;28;20071;-68